Time;durP1;ratioP1;P1;durP2;ratioP2;P2;SDS_P1;SDS_P2;PMS_P1;PMS_P2;Temp;Humidity;BMP_temperature;BMP_pressure;BME280_temperature;BME280_humidity;BME280_pressure;Samples;Min_cycle;Max_cycle;Signal;HPM_P1;HPM_P2
2021/06/02 00:00:51;;;;;;;2.37;1.30;;;18.50;91.30;;;;;;1947300;73;21150;-71
2021/06/02 00:03:21;;;;;;;3.87;1.55;;;18.50;91.00;;;;;;1949361;73;21034;-71
2021/06/02 00:05:51;;;;;;;4.58;1.42;;;18.50;91.70;;;;;;1944572;73;21077;-71
2021/06/02 00:08:18;;;;;;;2.90;1.50;;;18.50;91.70;;;;;;1946530;73;21151;-70
2021/06/02 00:10:46;;;;;;;2.67;1.40;;;18.40;91.20;;;;;;1939565;73;21077;-71
2021/06/02 00:13:14;;;;;;;5.60;1.50;;;18.40;91.00;;;;;;1945264;73;21232;-71
2021/06/02 00:15:42;;;;;;;5.62;1.65;;;18.40;91.60;;;;;;1946102;73;21608;-70
2021/06/02 00:18:12;;;;;;;4.17;1.70;;;18.40;92.30;;;;;;1944091;73;21395;-70
2021/06/02 00:20:40;;;;;;;6.58;1.80;;;18.30;92.00;;;;;;1943642;73;21109;-70
2021/06/02 00:23:07;;;;;;;2.22;1.30;;;18.30;92.10;;;;;;1943922;73;21167;-70
2021/06/02 00:25:35;;;;;;;4.05;1.35;;;18.30;92.10;;;;;;1945509;73;21419;-70
2021/06/02 00:28:03;;;;;;;4.05;1.52;;;18.30;92.10;;;;;;1944633;73;21194;-70
2021/06/02 00:30:31;;;;;;;2.90;1.60;;;18.30;92.10;;;;;;1945116;73;21097;-70
2021/06/02 00:32:59;;;;;;;7.42;1.47;;;18.20;92.00;;;;;;1947796;73;21166;-70
2021/06/02 00:35:27;;;;;;;5.40;1.70;;;18.30;91.90;;;;;;1946526;73;21070;-70
2021/06/02 00:37:55;;;;;;;5.72;1.90;;;18.20;92.20;;;;;;1945399;73;21590;-70
2021/06/02 00:40:25;;;;;;;5.15;1.67;;;18.20;92.20;;;;;;1944491;73;21100;-70
2021/06/02 00:42:53;;;;;;;4.10;1.98;;;18.20;92.90;;;;;;1935176;73;21556;-70
2021/06/02 00:45:21;;;;;;;3.62;2.12;;;18.10;92.90;;;;;;1947455;73;21050;-70
2021/06/02 00:47:49;;;;;;;6.95;1.70;;;18.10;92.50;;;;;;1944211;73;21265;-71
2021/06/02 00:50:17;;;;;;;7.47;1.87;;;18.00;92.40;;;;;;1947142;73;21107;-69
2021/06/02 00:52:45;;;;;;;6.08;1.95;;;18.00;92.30;;;;;;1947137;72;21081;-70
2021/06/02 00:55:12;;;;;;;8.75;2.40;;;18.00;92.80;;;;;;1946504;73;21125;-70
2021/06/02 00:57:43;;;;;;;3.08;1.80;;;17.90;94.10;;;;;;1943518;73;21524;-70
2021/06/02 01:00:12;;;;;;;4.78;2.40;;;17.80;94.30;;;;;;1946353;73;21093;-69
2021/06/02 01:02:42;;;;;;;3.58;2.30;;;17.80;94.30;;;;;;1945071;73;21062;-70
2021/06/02 01:05:10;;;;;;;4.30;1.92;;;17.70;94.20;;;;;;1941962;73;21631;-70
2021/06/02 01:07:40;;;;;;;5.25;2.20;;;17.60;93.80;;;;;;1945419;73;21058;-70
2021/06/02 01:10:08;;;;;;;5.55;2.30;;;17.60;94.00;;;;;;1943641;73;21102;-71
2021/06/02 01:12:35;;;;;;;3.50;2.27;;;17.60;94.50;;;;;;1944799;73;21119;-71
2021/06/02 01:15:04;;;;;;;3.98;2.10;;;17.60;94.70;;;;;;1944692;73;21167;-69
2021/06/02 01:17:33;;;;;;;5.55;2.67;;;17.60;94.60;;;;;;1942171;73;21026;-70
2021/06/02 01:20:03;;;;;;;7.05;2.47;;;17.40;94.40;;;;;;1944476;73;21512;-70
2021/06/02 01:22:36;;;;;;;5.70;2.47;;;17.40;94.60;;;;;;1946628;73;21524;-70
2021/06/02 01:25:15;;;;;;;4.45;2.37;;;17.40;95.30;;;;;;1941915;73;21086;-70
2021/06/02 01:27:44;;;;;;;7.05;2.58;;;17.40;95.60;;;;;;1944674;73;21105;-70
2021/06/02 01:30:15;;;;;;;5.35;3.00;;;17.30;95.40;;;;;;1948862;73;21637;-70
2021/06/02 01:32:55;;;;;;;6.47;2.80;;;17.20;95.30;;;;;;1941598;73;21568;-71
2021/06/02 01:35:53;;;;;;;8.15;2.90;;;17.30;95.30;;;;;;1943654;73;21635;-71
2021/06/02 01:38:46;;;;;;;4.00;2.80;;;17.20;95.70;;;;;;1941282;73;21672;-71
2021/06/02 01:41:25;;;;;;;2.95;2.42;;;17.20;95.70;;;;;;1942635;73;21093;-70
2021/06/02 01:44:19;;;;;;;4.37;3.10;;;17.10;96.00;;;;;;1945214;72;21133;-70
2021/06/02 01:46:58;;;;;;;4.50;3.27;;;17.10;96.40;;;;;;1949152;73;21042;-71
2021/06/02 01:50:03;;;;;;;6.08;3.60;;;17.00;96.80;;;;;;1867850;73;21143;-70
2021/06/02 01:53:06;;;;;;;9.18;3.30;;;17.00;96.90;;;;;;1945653;73;21014;-70
2021/06/02 01:56:02;;;;;;;7.80;3.70;;;17.00;96.80;;;;;;1838044;77;21128;-70
2021/06/02 01:58:47;;;;;;;9.28;3.45;;;17.00;96.80;;;;;;1805281;78;21173;-72
2021/06/02 02:01:38;;;;;;;6.37;4.00;;;16.90;97.00;;;;;;1834257;76;21120;-71
2021/06/02 02:04:17;;;;;;;4.95;3.72;;;16.90;96.90;;;;;;1862717;75;21096;-72
2021/06/02 02:06:53;;;;;;;6.28;4.00;;;16.90;97.20;;;;;;1901285;75;21078;-72
2021/06/02 02:09:39;;;;;;;9.00;4.30;;;16.80;97.30;;;;;;1901943;75;21141;-71
2021/06/02 02:12:13;;;;;;;7.85;4.22;;;16.80;97.40;;;;;;1904031;75;21780;-71
2021/06/02 02:15:12;;;;;;;8.80;4.60;;;16.80;98.10;;;;;;1901436;74;21157;-71
2021/06/02 02:18:07;;;;;;;9.75;4.55;;;16.70;98.20;;;;;;1902160;74;21109;-70
2021/06/02 02:20:55;;;;;;;7.33;4.45;;;16.70;98.60;;;;;;1903730;75;21203;-69
2021/06/02 02:23:26;;;;;;;6.90;4.58;;;16.60;99.10;;;;;;1902333;75;21164;-71
2021/06/02 02:26:13;;;;;;;12.03;5.70;;;16.50;98.80;;;;;;1899120;75;21113;-71
2021/06/02 02:28:49;;;;;;;12.70;4.97;;;16.50;99.20;;;;;;1903151;75;21179;-72
2021/06/02 02:31:52;;;;;;;8.75;5.28;;;16.50;99.50;;;;;;1903338;75;21745;-71
2021/06/02 02:34:44;;;;;;;6.87;4.50;;;16.50;99.50;;;;;;1902985;75;21114;-71
2021/06/02 02:37:32;;;;;;;7.87;5.40;;;16.50;99.80;;;;;;1901843;75;22208;-72
2021/06/02 02:40:06;;;;;;;7.35;5.55;;;16.40;99.90;;;;;;1886735;75;21117;-70
2021/06/02 02:42:45;;;;;;;7.70;5.60;;;16.40;99.90;;;;;;1905423;75;21051;-71
2021/06/02 02:45:35;;;;;;;9.73;5.05;;;16.40;99.90;;;;;;1901118;75;21148;-70
2021/06/02 02:48:21;;;;;;;11.12;5.90;;;16.40;99.90;;;;;;1901748;75;21078;-70
2021/06/02 02:51:01;;;;;;;7.70;5.47;;;16.30;99.90;;;;;;1902920;75;21089;-70
2021/06/02 02:53:53;;;;;;;8.93;5.87;;;16.30;99.90;;;;;;1900673;75;21141;-70
2021/06/02 02:56:29;;;;;;;7.67;5.47;;;16.30;99.90;;;;;;1904404;75;21477;-71
2021/06/02 02:59:08;;;;;;;11.85;6.05;;;16.20;99.90;;;;;;1901553;75;21133;-71
2021/06/02 03:01:59;;;;;;;8.18;5.97;;;16.20;99.90;;;;;;1904161;75;21090;-71
2021/06/02 03:04:28;;;;;;;11.68;6.15;;;16.10;99.90;;;;;;1865045;75;21134;-70
2021/06/02 03:06:58;;;;;;;8.10;5.97;;;16.10;99.90;;;;;;1902291;75;21152;-71
2021/06/02 03:09:44;;;;;;;9.70;6.67;;;16.10;99.90;;;;;;1900918;75;21609;-71
2021/06/02 03:12:32;;;;;;;10.60;6.28;;;16.10;99.90;;;;;;1907955;75;21100;-70
2021/06/02 03:15:11;;;;;;;9.18;6.20;;;16.10;99.90;;;;;;1860793;76;21090;-71
2021/06/02 03:17:48;;;;;;;10.13;6.12;;;16.10;99.90;;;;;;1888443;75;20995;-70
2021/06/02 03:20:24;;;;;;;10.80;6.40;;;16.10;99.90;;;;;;1910854;75;21086;-70
2021/06/02 03:23:05;;;;;;;9.85;6.67;;;16.10;99.90;;;;;;1904041;75;21066;-70
2021/06/02 03:25:43;;;;;;;9.75;6.62;;;16.10;99.90;;;;;;1906236;73;21105;-71
2021/06/02 03:28:17;;;;;;;10.70;6.20;;;16.10;99.90;;;;;;1905217;75;21094;-71
2021/06/02 03:31:08;;;;;;;11.50;6.17;;;16.10;99.90;;;;;;1902671;75;21396;-70
2021/06/02 03:33:48;;;;;;;12.05;6.58;;;16.10;99.90;;;;;;1902955;75;21160;-71
2021/06/02 03:36:46;;;;;;;7.28;6.30;;;16.00;99.90;;;;;;1909796;74;21086;-71
2021/06/02 03:39:25;;;;;;;8.50;6.12;;;16.00;99.90;;;;;;1902789;75;21496;-73
2021/06/02 03:42:14;;;;;;;10.68;5.55;;;16.10;99.90;;;;;;1892566;75;21531;-71
2021/06/02 03:45:01;;;;;;;9.03;5.65;;;16.10;99.90;;;;;;1907102;75;21165;-71
2021/06/02 03:47:53;;;;;;;9.03;5.47;;;16.10;99.90;;;;;;1905675;75;21098;-70
2021/06/02 03:50:28;;;;;;;7.33;5.33;;;16.10;99.90;;;;;;1855942;77;21218;-71
2021/06/02 03:53:15;;;;;;;8.60;5.17;;;16.10;99.90;;;;;;1896750;74;21137;-71
2021/06/02 03:55:51;;;;;;;10.20;5.08;;;16.10;99.90;;;;;;1904663;75;21075;-70
2021/06/02 03:58:34;;;;;;;8.08;4.50;;;16.00;99.90;;;;;;1909875;73;21075;-69
2021/06/02 04:01:25;;;;;;;7.30;4.33;;;16.10;99.90;;;;;;1905972;73;21113;-70
2021/06/02 04:04:14;;;;;;;10.43;4.58;;;16.10;99.90;;;;;;1900684;75;21383;-70
2021/06/02 04:06:54;;;;;;;7.53;4.58;;;16.10;99.90;;;;;;1859757;75;21047;-70
2021/06/02 04:09:25;;;;;;;6.72;3.90;;;16.00;99.90;;;;;;1904225;75;21109;-70
2021/06/02 04:12:01;;;;;;;4.95;3.58;;;16.10;99.90;;;;;;1902101;75;21054;-70
2021/06/02 04:14:36;;;;;;;5.90;3.52;;;16.20;99.90;;;;;;1904922;75;21215;-72
2021/06/02 04:17:04;;;;;;;6.15;3.45;;;16.30;99.90;;;;;;1907980;75;21171;-70
2021/06/02 04:19:34;;;;;;;5.42;3.15;;;16.20;99.90;;;;;;1906451;75;21166;-69
2021/06/02 04:22:07;;;;;;;7.80;3.37;;;16.30;99.90;;;;;;1903338;75;21381;-72
2021/06/02 04:24:37;;;;;;;10.48;3.15;;;16.30;99.90;;;;;;1906938;74;21157;-73
2021/06/02 04:27:06;;;;;;;4.28;2.72;;;16.30;99.90;;;;;;1905277;75;21082;-70
2021/06/02 04:29:34;;;;;;;9.18;2.85;;;16.40;99.90;;;;;;1907486;75;21086;-69
2021/06/02 04:32:08;;;;;;;4.62;3.10;;;16.40;99.90;;;;;;1904671;75;21095;-70
2021/06/02 04:34:37;;;;;;;6.72;2.72;;;16.40;99.90;;;;;;1907558;75;21253;-70
2021/06/02 04:37:07;;;;;;;19.82;2.80;;;16.50;99.90;;;;;;1905957;74;21086;-69
2021/06/02 04:39:40;;;;;;;9.85;2.83;;;16.50;99.90;;;;;;1903910;75;21119;-70
2021/06/02 04:42:09;;;;;;;8.90;2.47;;;16.60;99.90;;;;;;1899646;75;21112;-70
2021/06/02 04:44:38;;;;;;;5.17;2.40;;;16.60;99.90;;;;;;1907191;75;21069;-68
2021/06/02 04:47:06;;;;;;;7.25;2.62;;;16.60;99.90;;;;;;1906852;75;21120;-69
2021/06/02 04:50:06;;;;;;;4.80;2.33;;;16.70;99.90;;;;;;1903521;75;21078;-70
2021/06/02 04:52:46;;;;;;;9.95;2.40;;;16.70;99.90;;;;;;1907454;75;21256;-70
2021/06/02 04:55:40;;;;;;;9.03;2.08;;;16.80;99.90;;;;;;1901296;75;21074;-69
2021/06/02 04:58:29;;;;;;;2.77;2.10;;;16.80;99.90;;;;;;1907243;75;21032;-69
2021/06/02 05:01:00;;;;;;;7.22;2.00;;;16.90;99.90;;;;;;1901826;75;21003;-68
2021/06/02 05:04:02;;;;;;;7.80;2.55;;;16.80;99.90;;;;;;1894041;75;21211;-70
2021/06/02 05:06:32;;;;;;;3.08;1.75;;;16.90;99.90;;;;;;1942650;73;21608;-71
2021/06/02 05:09:22;;;;;;;4.12;1.72;;;16.90;99.90;;;;;;1945758;73;21135;-70
2021/06/02 05:12:16;;;;;;;5.33;1.72;;;16.90;99.90;;;;;;1941523;73;21167;-69
2021/06/02 05:15:04;;;;;;;5.65;2.00;;;17.00;99.90;;;;;;1945009;73;21183;-70
2021/06/02 05:18:04;;;;;;;3.55;1.35;;;17.00;99.90;;;;;;1944149;73;21630;-72
2021/06/02 05:22:05;;;;;;;3.45;1.60;;;17.00;99.90;;;;;;1942243;73;21546;-72
2021/06/02 05:23:27;;;;;;;5.58;1.72;;;17.00;99.70;;;;;;1931989;73;21162;-71
2021/06/02 05:26:32;;;;;;;4.92;1.70;;;17.00;99.90;;;;;;1948318;73;21064;-71
2021/06/02 05:29:37;;;;;;;3.62;1.60;;;17.10;99.90;;;;;;1944883;73;21363;-71
2021/06/02 05:32:30;;;;;;;4.53;1.50;;;17.20;99.90;;;;;;1949402;73;21149;-71
2021/06/02 05:35:01;;;;;;;4.83;1.40;;;17.20;99.90;;;;;;1938423;73;21143;-70
2021/06/02 05:37:54;;;;;;;2.10;1.52;;;17.20;99.10;;;;;;1944366;73;21022;-70
2021/06/02 05:40:57;;;;;;;3.35;1.40;;;17.30;99.10;;;;;;1946452;73;21114;-71
2021/06/02 05:43:39;;;;;;;5.12;1.70;;;17.40;98.80;;;;;;1949589;72;21151;-70
2021/06/02 05:46:22;;;;;;;6.75;1.42;;;17.40;99.50;;;;;;1940126;73;21085;-70
2021/06/02 05:49:02;;;;;;;3.42;1.57;;;17.40;99.50;;;;;;1936552;73;21529;-72
2021/06/02 05:51:54;;;;;;;4.25;1.60;;;17.50;99.00;;;;;;1937483;73;21030;-67
2021/06/02 05:54:33;;;;;;;3.47;1.32;;;17.60;98.80;;;;;;1942186;73;21601;-72
2021/06/02 05:57:15;;;;;;;7.10;1.40;;;17.60;98.90;;;;;;1897291;75;21180;-72
2021/06/02 05:59:44;;;;;;;;;;;17.60;99.40;;;;;;1898695;75;21094;-69
2021/06/02 06:02:50;;;;;;;8.33;1.75;;;17.60;98.80;;;;;;1870030;75;20449;-67
2021/06/02 06:05:37;;;;;;;5.95;1.35;;;17.60;99.30;;;;;;1860281;76;21098;-68
2021/06/02 06:08:24;;;;;;;5.25;1.20;;;17.80;99.00;;;;;;1904356;75;21665;-68
2021/06/02 06:11:19;;;;;;;4.20;1.10;;;17.80;98.30;;;;;;1904699;75;21141;-68
2021/06/02 06:14:14;;;;;;;5.95;1.15;;;17.80;98.00;;;;;;1905548;75;21122;-71
2021/06/02 06:17:18;;;;;;;5.83;1.25;;;17.80;97.80;;;;;;1901366;75;21143;-70
2021/06/02 06:20:14;;;;;;;5.20;1.17;;;17.90;98.10;;;;;;1902612;75;21413;-70
2021/06/02 06:23:04;;;;;;;6.58;1.47;;;17.90;97.70;;;;;;1905803;75;21647;-72
2021/06/02 06:25:52;;;;;;;13.95;1.50;;;17.90;97.70;;;;;;1904363;75;21156;-70
2021/06/02 06:28:35;;;;;;;6.00;1.52;;;17.90;98.40;;;;;;1900089;75;21090;-69
2021/06/02 06:31:05;;;;;;;7.83;1.25;;;18.00;98.10;;;;;;1903776;75;21677;-72
2021/06/02 06:33:33;;;;;;;4.03;1.37;;;18.00;98.00;;;;;;1905892;75;21153;-72
2021/06/02 06:36:04;;;;;;;2.50;1.32;;;18.10;97.90;;;;;;1903907;75;21785;-72
2021/06/02 06:38:49;;;;;;;4.92;1.70;;;18.20;98.20;;;;;;1904740;75;21101;-71
2021/06/02 06:41:19;;;;;;;7.33;1.20;;;18.20;97.90;;;;;;1905136;74;21093;-72
2021/06/02 06:43:48;;;;;;;3.33;1.55;;;18.30;97.40;;;;;;1904075;74;21150;-71
2021/06/02 06:46:18;;;;;;;3.10;1.50;;;18.40;97.10;;;;;;1902304;75;21481;-70
2021/06/02 06:48:48;;;;;;;4.47;1.15;;;18.30;97.20;;;;;;1905031;74;21126;-73
2021/06/02 06:51:18;;;;;;;5.47;1.57;;;18.30;98.10;;;;;;1900410;75;21059;-72
2021/06/02 06:53:46;;;;;;;4.65;1.30;;;18.30;97.80;;;;;;1902614;75;21125;-71
2021/06/02 06:56:16;;;;;;;3.90;1.42;;;18.30;98.00;;;;;;1901709;75;21211;-72
2021/06/02 06:58:45;;;;;;;6.72;2.25;;;18.40;97.90;;;;;;1910526;75;21519;-71
2021/06/02 07:01:15;;;;;;;4.47;1.60;;;18.40;97.50;;;;;;1903526;75;21102;-72
2021/06/02 07:03:44;;;;;;;3.22;1.50;;;18.50;97.70;;;;;;1907626;75;21670;-73
2021/06/02 07:06:16;;;;;;;5.15;1.42;;;18.60;97.50;;;;;;1905202;75;21086;-72
2021/06/02 07:08:46;;;;;;;;;;;18.60;97.70;;;;;;1908001;75;21054;-72
2021/06/02 07:11:17;;;;;;;5.03;1.40;;;18.60;98.10;;;;;;1905867;75;20187;-71
2021/06/02 07:13:47;;;;;;;2.45;1.45;;;18.70;97.80;;;;;;1904490;75;21139;-72
2021/06/02 07:16:16;;;;;;;4.05;1.70;;;18.70;97.60;;;;;;1902148;75;21481;-72
2021/06/02 07:18:45;;;;;;;3.47;1.70;;;18.80;96.70;;;;;;1900331;75;21561;-72
2021/06/02 07:21:14;;;;;;;2.95;1.60;;;18.80;97.20;;;;;;1901538;75;21481;-72
2021/06/02 07:23:42;;;;;;;5.05;1.67;;;18.80;97.70;;;;;;1903044;75;21187;-72
2021/06/02 07:26:10;;;;;;;3.42;1.60;;;18.80;97.50;;;;;;1904556;75;21588;-72
2021/06/02 07:28:40;;;;;;;5.17;1.60;;;18.90;96.80;;;;;;1943830;73;21093;-72
2021/06/02 07:31:10;;;;;;;6.72;2.02;;;18.90;97.90;;;;;;1943236;73;21101;-71
2021/06/02 07:33:38;;;;;;;5.55;1.92;;;19.00;97.70;;;;;;1945256;72;21118;-71
2021/06/02 07:36:08;;;;;;;6.58;1.72;;;19.00;96.60;;;;;;1942790;73;21054;-71
2021/06/02 07:38:36;;;;;;;2.65;1.52;;;19.10;96.80;;;;;;1944413;73;21050;-71
2021/06/02 07:41:03;;;;;;;4.83;1.60;;;19.10;98.00;;;;;;1942850;73;21180;-71
2021/06/02 07:43:31;;;;;;;2.33;1.20;;;19.10;97.50;;;;;;1943944;73;21137;-71
2021/06/02 07:45:58;;;;;;;3.67;1.57;;;19.10;97.50;;;;;;1946250;73;21144;-71
2021/06/02 07:48:26;;;;;;;3.30;1.62;;;19.20;96.90;;;;;;1946000;73;21089;-71
2021/06/02 07:50:54;;;;;;;2.70;1.40;;;19.20;97.00;;;;;;1942277;73;21619;-71
2021/06/02 07:53:21;;;;;;;3.08;1.55;;;19.30;96.40;;;;;;1946115;73;21664;-71
2021/06/02 07:55:49;;;;;;;3.58;1.45;;;19.30;96.50;;;;;;1946164;73;22072;-72
2021/06/02 07:58:17;;;;;;;3.80;1.62;;;19.40;97.20;;;;;;1941267;73;21104;-71
2021/06/02 08:00:44;;;;;;;4.45;1.62;;;19.40;96.00;;;;;;1943973;73;21057;-71
2021/06/02 08:03:12;;;;;;;7.28;1.67;;;19.50;97.10;;;;;;1950394;73;21081;-71
2021/06/02 08:05:39;;;;;;;3.55;1.60;;;19.50;97.50;;;;;;1942769;73;22136;-71
2021/06/02 08:08:08;;;;;;;4.42;1.80;;;19.50;96.50;;;;;;1947302;73;21057;-71
2021/06/02 08:10:35;;;;;;;3.83;1.47;;;19.50;96.60;;;;;;1941772;73;21567;-71
2021/06/02 08:13:03;;;;;;;4.37;2.08;;;19.60;96.20;;;;;;1942813;73;21457;-71
2021/06/02 08:15:31;;;;;;;5.28;2.10;;;19.60;97.10;;;;;;1943616;73;21125;-71
2021/06/02 08:18:01;;;;;;;3.83;1.75;;;19.70;98.00;;;;;;1946249;73;21082;-71
2021/06/02 08:20:28;;;;;;;5.58;1.95;;;19.70;97.20;;;;;;1952386;73;21085;-72
2021/06/02 08:22:55;;;;;;;6.62;2.15;;;19.70;97.20;;;;;;1948313;73;21486;-73
2021/06/02 08:25:23;;;;;;;8.55;1.90;;;19.80;96.70;;;;;;1950580;73;21089;-72
2021/06/02 08:27:51;;;;;;;4.87;1.72;;;19.90;97.10;;;;;;1948614;72;21054;-72
2021/06/02 08:30:18;;;;;;;7.97;2.00;;;20.00;96.80;;;;;;1945143;73;21073;-72
2021/06/02 08:32:46;;;;;;;6.55;2.50;;;20.00;96.60;;;;;;1947691;73;21034;-72
2021/06/02 08:35:19;;;;;;;4.72;2.10;;;20.00;96.10;;;;;;1945104;73;21621;-72
2021/06/02 08:37:44;;;;;;;6.97;2.02;;;20.00;97.40;;;;;;1942764;73;21180;-72
2021/06/02 08:40:16;;;;;;;7.62;2.27;;;20.10;96.30;;;;;;1948079;73;21043;-72
2021/06/02 08:42:46;;;;;;;6.67;2.10;;;20.20;96.20;;;;;;1945419;73;21077;-70
2021/06/02 08:45:16;;;;;;;5.70;2.00;;;20.20;95.70;;;;;;1947537;73;21075;-70
2021/06/02 08:47:44;;;;;;;6.78;2.00;;;20.20;96.30;;;;;;1949165;73;21089;-72
2021/06/02 08:50:13;;;;;;;3.12;1.90;;;20.30;96.00;;;;;;1947482;73;21482;-72
2021/06/02 08:52:42;;;;;;;4.37;2.10;;;20.40;96.00;;;;;;1943924;73;21544;-70
2021/06/02 08:55:12;;;;;;;5.62;2.12;;;20.40;97.20;;;;;;1945507;73;21207;-70
2021/06/02 08:58:01;;;;;;;3.77;1.70;;;20.50;96.30;;;;;;1948220;73;21069;-72
2021/06/02 09:00:29;;;;;;;7.70;1.80;;;20.50;96.10;;;;;;1869135;76;21102;-72
2021/06/02 09:02:57;;;;;;;4.28;2.00;;;20.60;95.70;;;;;;1893095;74;21075;-72
2021/06/02 09:05:26;;;;;;;4.95;2.17;;;20.70;95.70;;;;;;1868105;76;21228;-72
2021/06/02 09:07:55;;;;;;;5.75;2.40;;;20.70;94.90;;;;;;1869202;76;21109;-72
2021/06/02 09:10:24;;;;;;;5.00;2.35;;;20.80;96.10;;;;;;1869585;76;21090;-71
2021/06/02 09:12:59;;;;;;;6.05;2.00;;;20.90;96.30;;;;;;1869954;76;21676;-72
2021/06/02 09:15:34;;;;;;;3.90;1.90;;;20.90;95.50;;;;;;1872558;76;21204;-71
2021/06/02 09:18:04;;;;;;;4.45;2.17;;;21.00;96.40;;;;;;1867746;76;21176;-72
2021/06/02 09:20:46;;;;;;;6.47;2.50;;;21.10;96.40;;;;;;1870020;76;21550;-72
2021/06/02 09:23:32;;;;;;;9.70;2.30;;;21.10;94.00;;;;;;1865369;76;21035;-72
2021/06/02 09:26:15;;;;;;;6.03;1.90;;;21.20;95.70;;;;;;1871718;76;21063;-72
2021/06/02 09:29:08;;;;;;;5.85;2.30;;;21.20;94.80;;;;;;1870023;76;21027;-73
2021/06/02 09:31:44;;;;;;;6.92;2.30;;;21.30;94.30;;;;;;1870740;76;21117;-73
2021/06/02 09:34:17;;;;;;;7.12;2.52;;;21.30;95.40;;;;;;1869631;76;21168;-73
2021/06/02 09:36:47;;;;;;;6.35;2.00;;;21.40;95.50;;;;;;1876032;76;21007;-72
2021/06/02 09:39:21;;;;;;;7.67;2.45;;;21.40;95.60;;;;;;1873690;76;21876;-73
2021/06/02 09:41:53;;;;;;;5.50;2.72;;;21.50;95.30;;;;;;1870293;76;21155;-73
2021/06/02 09:44:26;;;;;;;7.42;2.40;;;21.50;94.50;;;;;;1875884;76;21145;-73
2021/06/02 09:47:06;;;;;;;5.62;2.42;;;21.60;95.60;;;;;;1870692;76;21094;-73
2021/06/02 09:49:54;;;;;;;4.50;2.20;;;21.60;95.10;;;;;;1873637;76;21219;-73
2021/06/02 09:52:41;;;;;;;6.37;2.50;;;21.60;94.50;;;;;;1873670;76;22183;-73
2021/06/02 09:55:32;;;;;;;5.72;2.52;;;21.50;96.20;;;;;;1865478;76;21102;-72
2021/06/02 09:58:09;;;;;;;3.83;2.10;;;21.60;95.10;;;;;;1863834;76;21082;-72
2021/06/02 10:00:40;;;;;;;4.75;2.30;;;21.70;95.30;;;;;;1868792;75;21164;-72
2021/06/02 10:03:16;;;;;;;4.62;2.33;;;21.70;93.30;;;;;;1867237;76;21126;-72
2021/06/02 10:05:46;;;;;;;6.03;2.33;;;21.80;93.80;;;;;;1899181;74;21117;-72
2021/06/02 10:08:31;;;;;;;5.97;2.58;;;21.90;93.30;;;;;;1887341;75;21138;-72
2021/06/02 10:11:00;;;;;;;3.90;2.27;;;21.90;93.20;;;;;;1890100;74;21139;-71
2021/06/02 10:13:29;;;;;;;11.55;2.60;;;22.00;93.30;;;;;;1884685;75;21105;-71
2021/06/02 10:15:57;;;;;;;4.58;2.20;;;22.00;94.00;;;;;;1890338;74;21042;-71
2021/06/02 10:18:29;;;;;;;5.28;1.90;;;22.10;95.20;;;;;;1882817;75;21061;-71
2021/06/02 10:21:02;;;;;;;6.33;2.20;;;22.10;93.20;;;;;;1886505;74;21120;-71
2021/06/02 10:23:32;;;;;;;7.95;2.55;;;22.20;93.60;;;;;;1896441;74;21312;-72
2021/06/02 10:26:00;;;;;;;3.92;2.55;;;22.20;94.70;;;;;;1887873;74;21017;-71
2021/06/02 10:28:30;;;;;;;4.22;2.35;;;22.30;92.90;;;;;;1886436;75;21105;-72
2021/06/02 10:30:58;;;;;;;4.05;2.30;;;22.30;92.40;;;;;;1891129;74;21055;-73
2021/06/02 10:33:26;;;;;;;5.22;2.22;;;22.30;93.80;;;;;;1891296;74;21168;-73
2021/06/02 10:35:55;;;;;;;4.45;2.27;;;22.40;94.10;;;;;;1888339;74;21629;-73
2021/06/02 10:38:25;;;;;;;4.75;2.27;;;22.40;94.10;;;;;;1883459;75;21139;-72
2021/06/02 10:40:53;;;;;;;5.17;2.20;;;22.50;94.40;;;;;;1883936;75;21170;-73
2021/06/02 10:46:14;;;;;;;;;;;22.60;92.70;;;;;;1879105;76;21184;-71
2021/06/02 10:48:47;;;;;;;4.75;2.30;;;22.70;94.50;;;;;;1879532;75;20294;-71
2021/06/02 10:51:32;;;;;;;5.20;2.00;;;22.70;93.80;;;;;;1873886;76;21614;-71
2021/06/02 10:54:18;;;;;;;4.60;2.42;;;22.70;94.30;;;;;;1875961;76;21158;-71
2021/06/02 10:57:04;;;;;;;12.13;2.58;;;22.80;94.90;;;;;;1923029;73;21056;-71
2021/06/02 10:59:33;;;;;;;8.08;2.52;;;22.90;93.50;;;;;;1918846;74;21028;-71
2021/06/02 11:02:21;;;;;;;4.97;2.65;;;22.80;93.90;;;;;;1919579;73;21034;-71
2021/06/02 11:05:01;;;;;;;4.10;2.30;;;22.80;92.80;;;;;;1791951;78;21268;-71
2021/06/02 11:07:32;;;;;;;5.60;2.17;;;22.90;93.90;;;;;;1795555;78;21134;-71
2021/06/02 11:10:09;;;;;;;7.05;2.75;;;22.90;93.60;;;;;;1843659;76;21139;-71
2021/06/02 11:12:52;;;;;;;5.12;2.45;;;22.90;94.20;;;;;;1839760;76;21148;-71
2021/06/02 11:15:44;;;;;;;7.62;2.80;;;22.90;94.00;;;;;;1841138;76;21106;-71
2021/06/02 11:18:20;;;;;;;4.62;2.35;;;23.10;93.90;;;;;;1834606;77;21413;-71
2021/06/02 11:20:58;;;;;;;3.08;2.30;;;23.10;94.20;;;;;;1845139;76;21785;-71
2021/06/02 11:23:38;;;;;;;7.12;2.50;;;23.10;94.70;;;;;;1838147;76;21074;-71
2021/06/02 11:26:26;;;;;;;3.75;2.47;;;23.20;94.60;;;;;;1836031;77;21618;-71
2021/06/02 11:28:55;;;;;;;3.75;2.27;;;23.20;94.00;;;;;;1837477;77;21621;-71
2021/06/02 11:31:28;;;;;;;4.40;2.70;;;23.20;93.90;;;;;;1838595;76;21586;-71
2021/06/02 11:34:18;;;;;;;3.58;2.55;;;23.30;94.20;;;;;;1843055;76;21650;-71
2021/06/02 11:37:01;;;;;;;4.97;2.75;;;23.40;95.40;;;;;;1832114;76;21717;-71
2021/06/02 11:39:29;;;;;;;5.87;2.95;;;23.40;94.20;;;;;;1835706;77;21051;-70
2021/06/02 11:42:01;;;;;;;4.72;2.90;;;23.50;94.40;;;;;;1839629;77;21116;-71
2021/06/02 11:44:33;;;;;;;5.08;2.83;;;23.50;94.20;;;;;;1839062;76;21159;-70
2021/06/02 11:47:00;;;;;;;5.37;3.17;;;23.60;94.10;;;;;;1840816;76;21158;-71
2021/06/02 11:49:35;;;;;;;6.37;3.00;;;23.70;94.10;;;;;;1838575;76;21629;-71
2021/06/02 11:52:11;;;;;;;8.35;3.25;;;23.80;93.70;;;;;;1850567;76;21168;-71
2021/06/02 11:54:59;;;;;;;7.00;3.05;;;23.80;95.60;;;;;;1842583;76;21207;-70
2021/06/02 11:57:36;;;;;;;7.28;3.37;;;23.90;93.80;;;;;;1839564;76;21550;-71
2021/06/02 12:00:06;;;;;;;4.20;2.70;;;23.90;94.30;;;;;;1840591;76;22253;-70
2021/06/02 12:02:35;;;;;;;4.50;3.05;;;23.90;94.10;;;;;;1839637;76;21240;-71
2021/06/02 12:05:26;;;;;;;6.12;2.70;;;24.00;93.50;;;;;;1837602;76;21223;-72
2021/06/02 12:08:02;;;;;;;4.90;2.70;;;24.00;95.10;;;;;;1840658;76;21195;-71
2021/06/02 12:10:46;;;;;;;5.92;2.90;;;24.00;95.80;;;;;;1841875;76;21171;-71
2021/06/02 12:13:19;;;;;;;4.92;2.98;;;24.00;94.60;;;;;;1843209;76;21098;-71
2021/06/02 12:15:56;;;;;;;10.78;3.30;;;24.10;94.30;;;;;;1843631;76;21554;-71
2021/06/02 12:18:31;;;;;;;7.97;3.30;;;24.10;94.10;;;;;;1844594;76;21120;-71
2021/06/02 12:21:10;;;;;;;7.97;3.20;;;24.10;93.10;;;;;;1834198;77;21065;-71
2021/06/02 12:23:58;;;;;;;7.65;2.77;;;24.20;93.60;;;;;;1842534;76;21733;-71
2021/06/02 12:26:28;;;;;;;7.47;3.20;;;24.20;94.20;;;;;;1845376;76;21709;-71
2021/06/02 12:28:58;;;;;;;6.55;2.95;;;24.20;93.40;;;;;;1845190;76;22093;-71
2021/06/02 12:31:37;;;;;;;4.65;2.87;;;24.30;93.20;;;;;;1839796;76;21148;-71
2021/06/02 12:34:11;;;;;;;5.70;3.30;;;24.30;93.00;;;;;;1845384;76;21648;-71
2021/06/02 12:36:47;;;;;;;7.87;3.40;;;24.30;92.20;;;;;;1841198;77;21163;-71
2021/06/02 12:39:17;;;;;;;4.35;2.70;;;24.40;93.20;;;;;;1832744;77;21188;-71
2021/06/02 12:41:47;;;;;;;6.75;3.10;;;24.40;94.10;;;;;;1839005;77;21034;-71
2021/06/02 12:44:15;;;;;;;6.22;3.02;;;24.50;95.30;;;;;;1836679;77;21180;-71
2021/06/02 12:46:58;;;;;;;6.00;3.00;;;24.60;93.00;;;;;;1835922;77;21086;-71
2021/06/02 12:49:25;;;;;;;8.88;3.02;;;24.60;92.60;;;;;;1821893;77;21089;-71
2021/06/02 12:51:55;;;;;;;4.80;2.92;;;24.50;93.20;;;;;;1838501;76;21119;-71
2021/06/02 12:54:24;;;;;;;3.87;2.67;;;24.50;92.20;;;;;;1840776;77;21150;-71
2021/06/02 12:56:52;;;;;;;7.72;3.00;;;24.60;94.00;;;;;;1842885;76;22086;-71
2021/06/02 12:59:20;;;;;;;9.65;2.80;;;24.60;94.60;;;;;;1838859;77;21564;-71
2021/06/02 13:01:48;;;;;;;5.40;3.00;;;24.60;93.70;;;;;;1838809;76;21145;-71
2021/06/02 13:04:16;;;;;;;4.47;2.98;;;24.70;94.00;;;;;;1842553;76;21580;-71
2021/06/02 13:06:55;;;;;;;5.45;2.60;;;24.80;94.10;;;;;;1842519;76;21132;-71
2021/06/02 13:09:24;;;;;;;8.88;3.58;;;24.80;93.70;;;;;;1842109;76;21101;-71
2021/06/02 13:11:51;;;;;;;6.28;2.80;;;24.80;92.60;;;;;;1845120;76;21473;-71
2021/06/02 13:14:22;;;;;;;8.48;3.00;;;24.80;93.20;;;;;;1842522;76;21196;-71
2021/06/02 13:16:52;;;;;;;8.43;3.08;;;24.90;92.90;;;;;;1847054;76;21077;-71
2021/06/02 13:19:21;;;;;;;5.10;3.00;;;25.00;93.70;;;;;;1836441;76;21143;-71
2021/06/02 13:21:51;;;;;;;5.65;2.50;;;24.90;91.90;;;;;;1840493;76;21650;-71
2021/06/02 13:24:25;;;;;;;7.42;3.15;;;25.00;92.20;;;;;;1838092;76;21242;-71
2021/06/02 13:26:56;;;;;;;4.57;2.97;;;25.00;93.70;;;;;;1844479;76;21073;-71
2021/06/02 13:29:24;;;;;;;7.45;2.83;;;25.00;92.90;;;;;;1840750;76;21101;-71
2021/06/02 13:31:53;;;;;;;5.90;2.67;;;25.10;93.70;;;;;;1835513;76;21144;-70
2021/06/02 13:34:35;;;;;;;7.05;3.30;;;25.10;93.90;;;;;;1840655;76;21165;-71
2021/06/02 13:37:22;;;;;;;;;;;25.10;93.30;;;;;;1839828;77;21183;-71